Flight Track Log - Related Links

Times and Time Zones

All times are in EDT time to prevent confusion due to time zone crossing. See the EJA669 flight status page for this flight to view local times or setup timezone preferences in your user account.

Time Position Orientation Groundspeed Altitude Reporting Facility
EDT Latitude Longitude Course Direction KTS MPH feet Rate Location/Type
Sat 04:56:33 PM 35.3394 -97.5483 139° Southeast 244 281 5,000  Level Fort Worth Center
Sat 04:58:49 PM 35.4414 -97.3425 59° Northeast 317 365 9,300 1,818 Climbing Kansas City Center
Sat 04:59:51 PM 35.4906 -97.2389 60° Northeast 344 396 11,000 1,707 Climbing Kansas City Center
Sat 05:00:52 PM 35.5436 -97.1342 58° Northeast 355 409 12,800 1,707 Climbing Kansas City Center
Sat 05:01:54 PM 35.5969 -97.0264 59° Northeast 365 420 14,500 1,645 Climbing Kansas City Center
Sat 05:02:56 PM 35.6506 -96.9153 59° Northeast 375 432 16,200 1,548 Climbing Kansas City Center
Sat 05:03:58 PM 35.7069 -96.8017 59° Northeast 385 443 17,700 1,500 Climbing Kansas City Center
Sat 05:05:00 PM 35.7647 -96.6836 59° Northeast 397 457 19,300 1,659 Climbing Kansas City Center
Sat 05:06:01 PM 35.8356 -96.5378 59° Northeast 410 472 21,100 1,610 Climbing Kansas City Center
Sat 05:07:03 PM 35.8939 -96.4161 59° Northeast 413 475 22,600 1,452 Climbing Kansas City Center
Sat 05:08:05 PM 35.9708 -96.3139 47° Northeast 412 474 24,100 1,452 Climbing Kansas City Center
Sat 05:09:07 PM 36.0594 -96.2217 40° Northeast 413 475 25,600 1,452 Climbing Kansas City Center
Sat 05:10:09 PM 36.1472 -96.1289 40° Northeast 414 476 27,100 1,500 Climbing Kansas City Center
Sat 05:11:11 PM 36.2342 -96.0353 41° Northeast 414 476 28,700 1,512 Climbing Kansas City Center
Sat 05:12:12 PM 36.2889 -95.9111 61° Northeast 413 475 30,200 1,463 Climbing Kansas City Center
Sat 05:13:14 PM 36.3422 -95.7869 62° Northeast 409 471 31,700 1,548 Climbing Kansas City Center
Sat 05:14:16 PM 36.4047 -95.6406 62° Northeast 409 471 33,400 1,548 Climbing Kansas City Center
Sat 05:15:18 PM 36.4575 -95.5142 63° Northeast 412 474 34,900 1,258 Climbing Kansas City Center
Sat 05:16:20 PM 36.5117 -95.3867 62° Northeast 414 476 36,000 1,024 Climbing Kansas City Center
Sat 05:17:21 PM 36.5675 -95.2544 62° Northeast 427 491 37,000 732 Climbing Kansas City Center
Sat 05:18:23 PM 36.6317 -95.0994 63° Northeast 445 512 37,500 726 Climbing Kansas City Center
Sat 05:19:25 PM 36.6906 -94.9575 63° Northeast 454 522 38,500 1,016 Climbing Kansas City Center
Sat 05:20:27 PM 36.7486 -94.8164 63° Northeast 456 525 39,600 1,065 Climbing Kansas City Center
Sat 05:21:29 PM 36.8056 -94.6789 63° Northeast 452 520 40,700 683 Climbing Kansas City Center
Sat 05:22:30 PM 36.8617 -94.5408 63° Northeast 448 516 41,000 146 Climbing Kansas City Center
Sat 05:23:32 PM 36.9200 -94.4011 62° Northeast 451 519 41,000  Level Kansas City Center
Sat 05:24:34 PM 36.9886 -94.2328 63° Northeast 452 520 41,000  Level Kansas City Center
Sat 05:25:35 PM 37.0436 -94.0939 64° Northeast 449 517 41,000  Level Kansas City Center
Sat 05:26:37 PM 37.1000 -93.9553 63° Northeast 447 514 41,000  Level Kansas City Center
Sat 05:27:39 PM 37.1589 -93.8122 63° Northeast 444 511 41,000  Level Kansas City Center
Sat 05:28:41 PM 37.2136 -93.6742 64° Northeast 442 509 41,000  Level Kansas City Center
Sat 05:29:42 PM 37.2697 -93.5358 63° Northeast 444 511 41,000  Level Kansas City Center
Sat 05:30:44 PM 37.3267 -93.3975 63° Northeast 444 511 41,000  Level Kansas City Center
Sat 05:31:45 PM 37.3811 -93.2575 64° Northeast 445 512 41,000  Level Kansas City Center
Sat 05:32:47 PM 37.4361 -93.1181 64° Northeast 446 513 41,000  Level Kansas City Center
Sat 05:33:49 PM 37.4917 -92.9797 63° Northeast 444 511 41,000  Level Kansas City Center
Sat 05:34:50 PM 37.5569 -92.8131 64° Northeast 443 510 41,000  Level Kansas City Center
Sat 05:35:52 PM 37.6097 -92.6728 65° Northeast 445 512 41,000  Level Kansas City Center
Sat 05:36:54 PM 37.6628 -92.5356 64° Northeast 440 506 41,000  Level Kansas City Center
Sat 05:37:55 PM 37.7206 -92.3869 64° Northeast 440 506 41,000  Level Kansas City Center
Sat 05:38:57 PM 37.7719 -92.2492 65° Northeast 438 504 41,000  Level Kansas City Center
Sat 05:39:59 PM 37.8256 -92.1111 64° Northeast 438 504 41,000  Level Kansas City Center
Sat 05:41:00 PM 37.8831 -91.9597 64° Northeast 440 506 41,000  Level Kansas City Center
Sat 05:42:02 PM 37.9353 -91.8222 64° Northeast 436 502 41,000  Level Kansas City Center
Sat 05:43:04 PM 37.9883 -91.6850 64° Northeast 436 502 41,000  Level Kansas City Center
Sat 05:44:06 PM 38.0400 -91.5458 65° Northeast 436 502 41,000  Level Kansas City Center
Sat 05:45:07 PM 38.0928 -91.4067 64° Northeast 438 504 41,000  Level Kansas City Center
Sat 05:46:09 PM 38.1447 -91.2653 65° Northeast 440 506 41,000  Level Kansas City Center
Sat 05:47:11 PM 38.2025 -91.1089 65° Northeast 443 510 41,000  Level Kansas City Center
Sat 05:48:12 PM 38.2539 -90.9672 65° Northeast 443 510 41,000  Level Kansas City Center
Sat 05:50:00 PM 38.3313 -90.7284 67° East  Level FlightAware Approximate
Sat 05:51:17 PM 38.4136 -90.5267 67° East 440 506 41,000  Level Kansas City Center
Sat 05:52:19 PM 38.4639 -90.3828 66° East 441 507 41,000  Level Kansas City Center
Sat 05:53:21 PM 38.5178 -90.2328 65° Northeast 444 511 41,000  Level Kansas City Center
Sat 05:54:22 PM 38.5692 -90.0939 65° Northeast 437 503 41,000  Level Kansas City Center
Sat 05:55:24 PM 38.6203 -89.9517 65° Northeast 441 507 41,000  Level Kansas City Center
Sat 05:56:26 PM 38.6697 -89.8097 66° East 443 510 41,000  Level Kansas City Center
Sat 05:57:27 PM 38.7303 -89.6417 65° Northeast 436 502 41,000  Level Kansas City Center
Sat 05:58:29 PM 38.7781 -89.5047 66° East 425 489 41,000  Level Kansas City Center
Sat 05:59:31 PM 38.8294 -89.3550 66° East 426 490 41,000  Level Kansas City Center
Sat 06:00:32 PM 38.8783 -89.2147 66° East 431 496 41,000  Level Kansas City Center
Sat 06:01:34 PM 38.9269 -89.0725 66° East 434 499 41,000  Level Kansas City Center
Sat 06:02:36 PM 38.9714 -88.9439 66° East 435 501 41,000  Level Kansas City Center
Sat 06:03:37 PM 39.0219 -88.8028 65° Northeast 436 502 41,000  Level Kansas City Center
Sat 06:04:39 PM 39.0783 -88.6356 66° East 428 493 41,000  Level Kansas City Center
Sat 06:05:40 PM 39.1222 -88.5061 66° East 423 487 41,000  Level Kansas City Center
Sat 06:06:42 PM 39.1667 -88.3711 67° East 413 475 41,000  Level Kansas City Center
Sat 06:07:43 PM 39.2119 -88.2333 67° East 413 475 41,000  Level Kansas City Center
Sat 06:08:45 PM 39.2581 -88.0950 67° East 415 478 41,000  Level Kansas City Center
Sat 06:09:47 PM 39.3022 -87.9603 67° East 410 472 41,000  Level Kansas City Center
Sat 06:10:48 PM 39.3358 -87.7822 76° East 422 486 41,000  Level Kansas City Center
Sat 06:11:50 PM 39.3600 -87.6347 78° East 419 482 41,000  Level Kansas City Center
Sat 06:12:58 PM 39.3878 -87.4706 78° East 424 488 41,000  Level Indianapolis Center
Sat 06:14:00 PM 39.4131 -87.3236 77° East 422 486 41,000  Level Indianapolis Center
Sat 06:15:01 PM 39.4375 -87.1772 78° East 419 482 41,000  Level Indianapolis Center
Sat 06:16:03 PM 39.4606 -87.0325 78° East 413 475 41,000  Level Indianapolis Center
Sat 06:17:04 PM 39.4844 -86.8889 78° East 411 473 41,000  Level Indianapolis Center
Sat 06:18:06 PM 39.5075 -86.7458 78° East 408 470 41,000  Level Indianapolis Center
Sat 06:19:07 PM 39.5347 -86.5747 78° East 408 470 41,000  Level Indianapolis Center
Sat 06:20:09 PM 39.5569 -86.4339 78° East 403 464 41,000  Level Indianapolis Center
Sat 06:21:10 PM 39.5783 -86.2939 79° East 405 466 41,000  Level Indianapolis Center
Sat 06:22:11 PM 39.5997 -86.1533 79° East 406 467 41,000  Level Indianapolis Center
Sat 06:23:13 PM 39.6222 -86.0133 78° East 404 465 41,000  Level Indianapolis Center
Sat 06:24:14 PM 39.6444 -85.8733 78° East 402 463 41,000  Level Indianapolis Center
Sat 06:25:16 PM 39.6697 -85.7028 79° East 403 464 41,000  Level Indianapolis Center
Sat 06:26:17 PM 39.6925 -85.5606 78° East 405 466 41,000  Level Indianapolis Center
Sat 06:27:19 PM 39.7136 -85.4172 79° East 405 466 41,000  Level Indianapolis Center
Sat 06:28:20 PM 39.7350 -85.2725 79° East 410 472 41,000  Level Indianapolis Center
Sat 06:29:22 PM 39.7564 -85.1267 79° East 412 474 41,000  Level Indianapolis Center
Sat 06:30:23 PM 39.7775 -84.9806 79° East 414 476 41,000 -293 Level Indianapolis Center
Sat 06:31:25 PM 39.8014 -84.8175 79° East 411 473 40,400 -1,122 Descending Indianapolis Center
Sat 06:32:26 PM 39.8214 -84.6706 80° East 408 470 38,700 -1,869 Descending Indianapolis Center
Sat 06:33:27 PM 39.8428 -84.5250 79° East 407 468 36,600 -2,098 Descending Indianapolis Center
Sat 06:34:29 PM 39.8631 -84.3789 80° East 408 470 34,400 -1,805 Descending Indianapolis Center
Sat 06:35:30 PM 39.8831 -84.2303 80° East 412 474 32,900 -1,415 Descending Indianapolis Center
Sat 06:36:32 PM 39.9044 -84.0803 79° East 416 479 31,500 -927 Descending Indianapolis Center
Sat 06:37:33 PM 39.9253 -83.9256 80° East 426 490 31,000 -244 Descending Indianapolis Center
Sat 06:38:35 PM 39.9464 -83.7708 80° East 428 493 31,000  Level Indianapolis Center
Sat 06:39:36 PM 39.9672 -83.6147 80° East 429 494 31,000  Level Indianapolis Center
Sat 06:40:38 PM 39.9886 -83.4544 80° East 434 499 31,000  Level Indianapolis Center
Sat 06:41:39 PM 40.0100 -83.2944 80° East 437 503 31,000  Level Indianapolis Center
Sat 06:42:40 PM 40.0292 -83.1383 81° East 433 498 31,000  Level Indianapolis Center
Sat 06:43:42 PM 40.0486 -82.9833 81° East 428 493 31,000  Level Indianapolis Center
Sat 06:44:43 PM 40.0686 -82.8272 80° East 431 496 31,000 -585 Level Indianapolis Center
Sat 06:45:45 PM 40.0903 -82.6486 81° East 422 486 29,800 -1,355 Descending Indianapolis Center
Sat 06:46:47 PM 40.1100 -82.4892 81° East 438 504 28,200 -1,463 Descending Indianapolis Center
Sat 06:47:48 PM 40.1297 -82.3269 81° East 448 516 26,800 -1,171 Descending Indianapolis Center
Sat 06:48:50 PM 40.1492 -82.1669 81° East 444 511 25,800 -976 Descending Indianapolis Center
Sat 06:49:51 PM 40.1681 -82.0081 81° East 442 509 24,800 -976 Descending Indianapolis Center
Sat 06:50:53 PM 40.1858 -81.8506 82° East 436 502 23,800 -1,171 Descending Indianapolis Center
Sat 06:51:54 PM 40.2033 -81.7019 81° East 427 491 22,400 -1,756 Descending Indianapolis Center
Sat 06:52:56 PM 40.2208 -81.5511 81° East 419 482 20,200 -1,659 Descending Indianapolis Center
Sat 06:53:57 PM 40.2072 -81.4081 97° East 404 465 19,000 -829 Descending Indianapolis Center
Sat 06:54:59 PM 40.1553 -81.2478 113° Southeast 411 473 18,500 -780 Descending Indianapolis Center
Sat 06:56:00 PM 40.1128 -81.1164 113° Southeast 393 452 17,400 -1,767 Descending Indianapolis Center
Sat 06:57:08 PM 40.0958 -80.9631 98° East 383 441 14,700 -2,250 Descending Cleveland Center
Sat 06:58:08 PM 40.1169 -80.8328 78° East 353 406 12,600 -2,100 Descending Cleveland Center
Sat 06:59:08 PM 40.1858 -80.7381 46° Northeast 328 377 10,500 -1,600 Descending Cleveland Center
Sat 07:00:08 PM 40.2528 -80.6647 40° Northeast 323 372 9,400 -1,600 Descending Cleveland Center
Sat 07:01:08 PM 40.3153 -80.5967 40° Northeast 295 339 7,300 -2,000 Descending Cleveland Center
Sat 07:02:08 PM 40.3714 -80.5342 40° Northeast 283 326 5,400 -1,750 Descending Cleveland Center
Sat 07:03:08 PM 40.4256 -80.4739 40° Northeast 265 305 3,800 -1,100 Descending Cleveland Center
Sat 07:04:08 PM 40.4756 -80.4192 40° Northeast 243 280 3,200 -450 Descending Cleveland Center
Sat 07:05:08 PM 40.5069 -80.3700 50° Northeast 220 253 2,900 -650 Descending Cleveland Center
Sat 07:06:08 PM 40.5047 -80.3100 93° East 174 200 1,900 -1,000 Descending Cleveland Center
Sat 07:08:00 PM 40.4915 -80.2329 270° West  Level Estimated
Sat 07:15:00 PM 40.4915 -80.2329 270° West  Level Estimated

Login

Don't have an account? Register now (free) for customized features, flight alerts, and more!